sensor_id;sensor_type;location;lat;lon;timestamp;pressure;altitude;pressure_sealevel;temperature;humidity
73952;BME280;62304;47.662;18.324;2024-02-28T00:01:27;100202.56;;;10.80;97.28
73952;BME280;62304;47.662;18.324;2024-02-28T00:04:30;100200.69;;;10.87;96.58
73952;BME280;62304;47.662;18.324;2024-02-28T00:07:33;100195.47;;;10.56;96.90
73952;BME280;62304;47.662;18.324;2024-02-28T00:10:37;100198.66;;;10.84;96.17
73952;BME280;62304;47.662;18.324;2024-02-28T00:13:40;100196.22;;;10.79;95.73
73952;BME280;62304;47.662;18.324;2024-02-28T00:16:44;100199.59;;;10.66;95.82
73952;BME280;62304;47.662;18.324;2024-02-28T00:19:47;100195.91;;;10.32;96.40
73952;BME280;62304;47.662;18.324;2024-02-28T00:22:51;100208.50;;;10.04;97.41
73952;BME280;62304;47.662;18.324;2024-02-28T00:25:54;100214.66;;;9.97;98.04
73952;BME280;62304;47.662;18.324;2024-02-28T00:28:57;100212.97;;;10.12;97.24
73952;BME280;62304;47.662;18.324;2024-02-28T00:32:00;100212.56;;;10.10;97.77
73952;BME280;62304;47.662;18.324;2024-02-28T00:35:03;100218.97;;;10.14;97.77
73952;BME280;62304;47.662;18.324;2024-02-28T00:38:06;100220.97;;;10.17;97.41
73952;BME280;62304;47.662;18.324;2024-02-28T00:41:10;100219.75;;;10.14;97.00
73952;BME280;62304;47.662;18.324;2024-02-28T00:44:13;100209.28;;;10.04;97.49
73952;BME280;62304;47.662;18.324;2024-02-28T00:47:16;100215.38;;;9.91;98.86
73952;BME280;62304;47.662;18.324;2024-02-28T00:50:19;100217.91;;;9.58;100.00
73952;BME280;62304;47.662;18.324;2024-02-28T00:53:22;100220.88;;;9.68;100.00
73952;BME280;62304;47.662;18.324;2024-02-28T00:56:25;100219.09;;;9.79;99.67
73952;BME280;62304;47.662;18.324;2024-02-28T00:59:30;100215.56;;;9.82;98.78
73952;BME280;62304;47.662;18.324;2024-02-28T01:02:33;100211.72;;;9.87;99.32
73952;BME280;62304;47.662;18.324;2024-02-28T01:05:36;100201.47;;;9.68;100.00
73952;BME280;62304;47.662;18.324;2024-02-28T01:08:39;100206.03;;;9.57;100.00
73952;BME280;62304;47.662;18.324;2024-02-28T01:11:43;100204.19;;;9.46;100.00
73952;BME280;62304;47.662;18.324;2024-02-28T01:14:46;100208.38;;;9.36;100.00
73952;BME280;62304;47.662;18.324;2024-02-28T01:17:49;100202.19;;;9.24;100.00
73952;BME280;62304;47.662;18.324;2024-02-28T01:20:52;100210.56;;;9.46;100.00
73952;BME280;62304;47.662;18.324;2024-02-28T01:23:56;100206.50;;;9.63;100.00
73952;BME280;62304;47.662;18.324;2024-02-28T01:26:59;100204.94;;;9.84;100.00
73952;BME280;62304;47.662;18.324;2024-02-28T01:30:02;100206.59;;;9.89;99.74
73952;BME280;62304;47.662;18.324;2024-02-28T01:33:06;100212.25;;;9.96;98.85
73952;BME280;62304;47.662;18.324;2024-02-28T01:36:12;100197.41;;;9.85;99.48
73952;BME280;62304;47.662;18.324;2024-02-28T01:39:15;100213.78;;;9.93;99.10
73952;BME280;62304;47.662;18.324;2024-02-28T01:42:18;100206.13;;;9.83;100.00
73952;BME280;62304;47.662;18.324;2024-02-28T01:45:21;100210.91;;;9.64;100.00
73952;BME280;62304;47.662;18.324;2024-02-28T01:48:24;100212.69;;;9.75;100.00
73952;BME280;62304;47.662;18.324;2024-02-28T01:51:27;100212.38;;;9.80;99.62
73952;BME280;62304;47.662;18.324;2024-02-28T01:54:31;100210.03;;;9.82;99.52
73952;BME280;62304;47.662;18.324;2024-02-28T01:57:36;100219.81;;;9.76;100.00
73952;BME280;62304;47.662;18.324;2024-02-28T02:00:40;100222.03;;;10.09;100.00
73952;BME280;62304;47.662;18.324;2024-02-28T02:03:44;100204.66;;;9.89;100.00
73952;BME280;62304;47.662;18.324;2024-02-28T02:06:48;100220.88;;;10.10;100.00
73952;BME280;62304;47.662;18.324;2024-02-28T02:09:52;100218.50;;;9.89;100.00
73952;BME280;62304;47.662;18.324;2024-02-28T02:13:04;100215.62;;;10.05;100.00
73952;BME280;62304;47.662;18.324;2024-02-28T02:16:07;100220.19;;;10.16;99.64
73952;BME280;62304;47.662;18.324;2024-02-28T02:19:10;100224.28;;;10.03;100.00
73952;BME280;62304;47.662;18.324;2024-02-28T02:22:14;100232.53;;;9.77;100.00
73952;BME280;62304;47.662;18.324;2024-02-28T02:25:17;100221.34;;;9.74;100.00
73952;BME280;62304;47.662;18.324;2024-02-28T02:28:20;100232.25;;;10.05;100.00
73952;BME280;62304;47.662;18.324;2024-02-28T02:31:23;100238.94;;;10.26;99.74
73952;BME280;62304;47.662;18.324;2024-02-28T02:34:26;100238.22;;;10.07;99.92
73952;BME280;62304;47.662;18.324;2024-02-28T02:37:29;100241.56;;;10.16;99.81
73952;BME280;62304;47.662;18.324;2024-02-28T02:40:32;100237.84;;;10.31;99.11
73952;BME280;62304;47.662;18.324;2024-02-28T02:43:35;100244.63;;;10.33;98.50
73952;BME280;62304;47.662;18.324;2024-02-28T02:46:38;100242.16;;;10.28;98.66
73952;BME280;62304;47.662;18.324;2024-02-28T02:49:41;100242.22;;;10.32;98.33
73952;BME280;62304;47.662;18.324;2024-02-28T02:52:45;100237.94;;;10.60;96.93
73952;BME280;62304;47.662;18.324;2024-02-28T02:55:47;100242.62;;;10.56;96.97
73952;BME280;62304;47.662;18.324;2024-02-28T02:58:51;100234.56;;;10.48;97.88
73952;BME280;62304;47.662;18.324;2024-02-28T03:01:53;100244.56;;;10.30;98.30
73952;BME280;62304;47.662;18.324;2024-02-28T03:04:57;100237.25;;;10.18;98.48
73952;BME280;62304;47.662;18.324;2024-02-28T03:07:59;100245.25;;;10.23;98.15
73952;BME280;62304;47.662;18.324;2024-02-28T03:11:03;100237.78;;;10.05;99.40
73952;BME280;62304;47.662;18.324;2024-02-28T03:14:07;100238.22;;;10.29;98.44
73952;BME280;62304;47.662;18.324;2024-02-28T03:17:10;100233.59;;;10.37;97.94
73952;BME280;62304;47.662;18.324;2024-02-28T03:20:13;100229.75;;;10.45;97.50
73952;BME280;62304;47.662;18.324;2024-02-28T03:23:17;100240.06;;;10.44;97.07
73952;BME280;62304;47.662;18.324;2024-02-28T03:26:20;100242.84;;;10.44;97.35
73952;BME280;62304;47.662;18.324;2024-02-28T03:29:23;100242.69;;;10.37;97.33
73952;BME280;62304;47.662;18.324;2024-02-28T03:32:26;100238.59;;;10.05;98.53
73952;BME280;62304;47.662;18.324;2024-02-28T03:35:30;100236.38;;;10.14;98.28
73952;BME280;62304;47.662;18.324;2024-02-28T03:38:33;100241.06;;;10.33;97.54
73952;BME280;62304;47.662;18.324;2024-02-28T03:41:36;100236.72;;;10.35;97.48
73952;BME280;62304;47.662;18.324;2024-02-28T03:44:38;100239.31;;;10.47;97.22
73952;BME280;62304;47.662;18.324;2024-02-28T03:47:42;100230.72;;;10.56;96.56
73952;BME280;62304;47.662;18.324;2024-02-28T03:50:45;100234.63;;;10.51;96.53
73952;BME280;62304;47.662;18.324;2024-02-28T03:53:48;100244.06;;;10.73;96.07
73952;BME280;62304;47.662;18.324;2024-02-28T03:56:51;100240.00;;;10.67;95.71
73952;BME280;62304;47.662;18.324;2024-02-28T03:59:54;100237.03;;;10.53;96.42
73952;BME280;62304;47.662;18.324;2024-02-28T04:02:56;100249.88;;;10.64;95.97
73952;BME280;62304;47.662;18.324;2024-02-28T04:05:59;100247.66;;;10.51;96.24
73952;BME280;62304;47.662;18.324;2024-02-28T04:09:02;100244.31;;;10.38;96.78
73952;BME280;62304;47.662;18.324;2024-02-28T04:12:07;100252.44;;;10.28;97.28
73952;BME280;62304;47.662;18.324;2024-02-28T04:15:11;100250.50;;;10.28;97.19
73952;BME280;62304;47.662;18.324;2024-02-28T04:18:18;100258.72;;;10.47;95.88
73952;BME280;62304;47.662;18.324;2024-02-28T04:21:21;100254.44;;;10.27;96.85
73952;BME280;62304;47.662;18.324;2024-02-28T04:24:24;100262.59;;;10.43;96.40
73952;BME280;62304;47.662;18.324;2024-02-28T04:27:27;100271.66;;;10.40;96.10
73952;BME280;62304;47.662;18.324;2024-02-28T04:30:31;100261.31;;;10.37;96.20
73952;BME280;62304;47.662;18.324;2024-02-28T04:33:33;100268.41;;;10.34;96.56
73952;BME280;62304;47.662;18.324;2024-02-28T04:36:37;100269.28;;;10.38;96.37
73952;BME280;62304;47.662;18.324;2024-02-28T04:39:40;100262.59;;;10.43;96.23
73952;BME280;62304;47.662;18.324;2024-02-28T04:42:43;100265.53;;;10.27;96.19
73952;BME280;62304;47.662;18.324;2024-02-28T04:45:46;100258.13;;;10.12;96.51
73952;BME280;62304;47.662;18.324;2024-02-28T04:48:49;100255.28;;;10.31;96.04
73952;BME280;62304;47.662;18.324;2024-02-28T04:51:52;100274.25;;;10.29;95.70
73952;BME280;62304;47.662;18.324;2024-02-28T04:54:57;100274.25;;;10.29;95.37
73952;BME280;62304;47.662;18.324;2024-02-28T04:57:59;100273.69;;;10.20;95.49
73952;BME280;62304;47.662;18.324;2024-02-28T05:01:03;100268.59;;;10.03;96.41
73952;BME280;62304;47.662;18.324;2024-02-28T05:04:07;100271.75;;;10.02;96.16
73952;BME280;62304;47.662;18.324;2024-02-28T05:07:11;100276.38;;;9.94;96.10
73952;BME280;62304;47.662;18.324;2024-02-28T05:10:13;100281.50;;;9.73;97.07
73952;BME280;62304;47.662;18.324;2024-02-28T05:13:18;100287.34;;;9.68;97.91
73952;BME280;62304;47.662;18.324;2024-02-28T05:16:21;100285.56;;;9.79;97.21
73952;BME280;62304;47.662;18.324;2024-02-28T05:19:24;100292.34;;;9.82;97.34
73952;BME280;62304;47.662;18.324;2024-02-28T05:22:27;100305.22;;;9.93;96.78
73952;BME280;62304;47.662;18.324;2024-02-28T05:25:30;100295.19;;;9.85;96.64
73952;BME280;62304;47.662;18.324;2024-02-28T05:28:33;100292.28;;;9.78;97.26
73952;BME280;62304;47.662;18.324;2024-02-28T05:31:41;100300.53;;;9.75;97.39
73952;BME280;62304;47.662;18.324;2024-02-28T05:34:45;100306.56;;;9.80;97.25
73952;BME280;62304;47.662;18.324;2024-02-28T05:37:53;100307.78;;;9.83;97.16
73952;BME280;62304;47.662;18.324;2024-02-28T05:40:57;100310.22;;;9.84;97.43
73952;BME280;62304;47.662;18.324;2024-02-28T05:44:00;100309.97;;;9.93;96.93
73952;BME280;62304;47.662;18.324;2024-02-28T05:47:03;100319.97;;;9.78;97.02
73952;BME280;62304;47.662;18.324;2024-02-28T05:50:07;100322.53;;;9.68;97.68
73952;BME280;62304;47.662;18.324;2024-02-28T05:53:10;100323.03;;;9.54;98.24
73952;BME280;62304;47.662;18.324;2024-02-28T05:56:13;100325.22;;;9.45;98.58
73952;BME280;62304;47.662;18.324;2024-02-28T05:59:16;100344.34;;;9.35;99.15
73952;BME280;62304;47.662;18.324;2024-02-28T06:02:20;100342.06;;;9.21;100.00
73952;BME280;62304;47.662;18.324;2024-02-28T06:05:24;100342.34;;;9.16;100.00
73952;BME280;62304;47.662;18.324;2024-02-28T06:08:27;100349.31;;;9.10;100.00
73952;BME280;62304;47.662;18.324;2024-02-28T06:11:30;100344.75;;;9.18;100.00
73952;BME280;62304;47.662;18.324;2024-02-28T06:14:33;100353.94;;;9.22;100.00
73952;BME280;62304;47.662;18.324;2024-02-28T06:17:36;100355.56;;;9.23;100.00
73952;BME280;62304;47.662;18.324;2024-02-28T06:20:39;100377.06;;;9.29;100.00
73952;BME280;62304;47.662;18.324;2024-02-28T06:23:43;100377.47;;;9.47;100.00
73952;BME280;62304;47.662;18.324;2024-02-28T06:26:46;100373.47;;;9.82;100.00
73952;BME280;62304;47.662;18.324;2024-02-28T06:29:52;100379.81;;;10.21;99.26
73952;BME280;62304;47.662;18.324;2024-02-28T06:32:58;100376.84;;;10.52;98.08
73952;BME280;62304;47.662;18.324;2024-02-28T06:36:02;100367.84;;;10.81;97.22
73952;BME280;62304;47.662;18.324;2024-02-28T06:39:05;100386.84;;;11.27;95.13
73952;BME280;62304;47.662;18.324;2024-02-28T06:42:08;100369.81;;;11.84;93.00
73952;BME280;62304;47.662;18.324;2024-02-28T06:45:11;100380.09;;;12.13;90.90
73952;BME280;62304;47.662;18.324;2024-02-28T06:48:15;100384.41;;;11.78;90.65
73952;BME280;62304;47.662;18.324;2024-02-28T06:51:18;100386.47;;;12.14;90.75
73952;BME280;62304;47.662;18.324;2024-02-28T06:54:22;100387.34;;;11.88;89.52
73952;BME280;62304;47.662;18.324;2024-02-28T06:57:25;100389.00;;;11.96;89.07
73952;BME280;62304;47.662;18.324;2024-02-28T07:00:28;100390.38;;;11.76;89.74
73952;BME280;62304;47.662;18.324;2024-02-28T07:03:31;100409.69;;;11.69;90.06
73952;BME280;62304;47.662;18.324;2024-02-28T07:06:34;100407.72;;;11.70;91.09
73952;BME280;62304;47.662;18.324;2024-02-28T07:09:38;100412.66;;;11.57;90.50
73952;BME280;62304;47.662;18.324;2024-02-28T07:12:41;100419.63;;;11.44;91.18
73952;BME280;62304;47.662;18.324;2024-02-28T07:15:44;100423.06;;;11.60;91.47
73952;BME280;62304;47.662;18.324;2024-02-28T07:18:47;100425.12;;;11.67;91.09
73952;BME280;62304;47.662;18.324;2024-02-28T07:21:50;100425.03;;;11.60;91.16
73952;BME280;62304;47.662;18.324;2024-02-28T07:24:54;100423.16;;;11.67;91.23
73952;BME280;62304;47.662;18.324;2024-02-28T07:27:57;100428.62;;;11.86;90.44
73952;BME280;62304;47.662;18.324;2024-02-28T07:31:03;100426.78;;;11.97;89.92
73952;BME280;62304;47.662;18.324;2024-02-28T07:34:06;100421.66;;;12.03;89.48
73952;BME280;62304;47.662;18.324;2024-02-28T07:37:11;100420.84;;;12.02;88.94
73952;BME280;62304;47.662;18.324;2024-02-28T07:40:14;100425.59;;;11.98;88.79
73952;BME280;62304;47.662;18.324;2024-02-28T07:43:17;100424.03;;;12.01;88.88
73952;BME280;62304;47.662;18.324;2024-02-28T07:46:20;100430.56;;;12.15;88.69
73952;BME280;62304;47.662;18.324;2024-02-28T07:49:24;100430.25;;;12.20;88.00
73952;BME280;62304;47.662;18.324;2024-02-28T07:52:29;100433.22;;;12.38;88.67
73952;BME280;62304;47.662;18.324;2024-02-28T07:55:33;100435.34;;;12.51;86.89
73952;BME280;62304;47.662;18.324;2024-02-28T07:58:36;100430.37;;;13.61;84.56
73952;BME280;62304;47.662;18.324;2024-02-28T08:01:39;100424.53;;;14.69;78.64
73952;BME280;62304;47.662;18.324;2024-02-28T08:04:42;100421.00;;;15.42;73.55
73952;BME280;62304;47.662;18.324;2024-02-28T08:07:45;100419.16;;;16.39;74.36
73952;BME280;62304;47.662;18.324;2024-02-28T08:10:49;100411.78;;;16.70;69.51
73952;BME280;62304;47.662;18.324;2024-02-28T08:13:54;100414.09;;;17.33;67.76
73952;BME280;62304;47.662;18.324;2024-02-28T08:16:58;100422.16;;;18.08;66.08
73952;BME280;62304;47.662;18.324;2024-02-28T08:20:01;100403.13;;;18.26;60.35
73952;BME280;62304;47.662;18.324;2024-02-28T08:23:05;100413.28;;;18.77;60.86
73952;BME280;62304;47.662;18.324;2024-02-28T08:26:08;100411.81;;;19.22;56.40
73952;BME280;62304;47.662;18.324;2024-02-28T08:29:12;100421.66;;;19.79;54.58
73952;BME280;62304;47.662;18.324;2024-02-28T08:32:15;100417.59;;;19.80;53.76
73952;BME280;62304;47.662;18.324;2024-02-28T08:35:18;100420.81;;;20.40;53.30
73952;BME280;62304;47.662;18.324;2024-02-28T08:38:21;100427.69;;;20.20;51.92
73952;BME280;62304;47.662;18.324;2024-02-28T08:41:25;100427.59;;;20.04;50.73
73952;BME280;62304;47.662;18.324;2024-02-28T08:44:28;100428.34;;;20.08;48.87
73952;BME280;62304;47.662;18.324;2024-02-28T08:47:31;100420.72;;;20.05;49.84
73952;BME280;62304;47.662;18.324;2024-02-28T08:50:35;100427.78;;;20.17;49.64
73952;BME280;62304;47.662;18.324;2024-02-28T08:53:38;100436.81;;;19.62;49.69
73952;BME280;62304;47.662;18.324;2024-02-28T08:56:41;100432.66;;;19.70;49.44
73952;BME280;62304;47.662;18.324;2024-02-28T08:59:58;100441.34;;;19.79;49.93
73952;BME280;62304;47.662;18.324;2024-02-28T09:03:00;100431.44;;;20.13;48.30
73952;BME280;62304;47.662;18.324;2024-02-28T09:06:05;100440.72;;;19.91;48.32
73952;BME280;62304;47.662;18.324;2024-02-28T09:09:08;100436.97;;;20.95;48.28
73952;BME280;62304;47.662;18.324;2024-02-28T09:12:12;100437.53;;;20.86;46.13
73952;BME280;62304;47.662;18.324;2024-02-28T09:15:15;100425.00;;;21.07;46.71
73952;BME280;62304;47.662;18.324;2024-02-28T09:18:19;100431.78;;;21.25;45.32
73952;BME280;62304;47.662;18.324;2024-02-28T09:21:22;100429.56;;;21.49;44.11
73952;BME280;62304;47.662;18.324;2024-02-28T09:24:26;100429.31;;;21.43;44.69
73952;BME280;62304;47.662;18.324;2024-02-28T09:27:30;100431.66;;;21.93;44.41
73952;BME280;62304;47.662;18.324;2024-02-28T09:30:36;100431.19;;;21.50;43.34
73952;BME280;62304;47.662;18.324;2024-02-28T09:33:49;100433.81;;;21.89;43.18
73952;BME280;62304;47.662;18.324;2024-02-28T09:36:54;100442.09;;;21.64;43.71
73952;BME280;62304;47.662;18.324;2024-02-28T09:39:57;100440.28;;;21.41;43.07
73952;BME280;62304;47.662;18.324;2024-02-28T09:43:02;100439.25;;;21.16;44.34
73952;BME280;62304;47.662;18.324;2024-02-28T09:46:09;100434.34;;;21.52;42.70
73952;BME280;62304;47.662;18.324;2024-02-28T09:49:16;100437.78;;;21.59;42.72
73952;BME280;62304;47.662;18.324;2024-02-28T09:52:19;100434.84;;;21.95;41.72
73952;BME280;62304;47.662;18.324;2024-02-28T09:55:23;100432.72;;;21.03;42.75
73952;BME280;62304;47.662;18.324;2024-02-28T09:58:26;100443.00;;;21.29;43.40
73952;BME280;62304;47.662;18.324;2024-02-28T10:01:32;100437.91;;;21.72;41.75
73952;BME280;62304;47.662;18.324;2024-02-28T10:04:40;100443.53;;;22.45;41.09
73952;BME280;62304;47.662;18.324;2024-02-28T10:07:44;100436.69;;;22.71;39.75
73952;BME280;62304;47.662;18.324;2024-02-28T10:10:48;100445.84;;;22.75;39.58
73952;BME280;62304;47.662;18.324;2024-02-28T10:13:52;100444.41;;;21.37;41.88
73952;BME280;62304;47.662;18.324;2024-02-28T10:16:58;100447.53;;;22.60;40.28
73952;BME280;62304;47.662;18.324;2024-02-28T10:20:01;100447.09;;;22.33;39.86
73952;BME280;62304;47.662;18.324;2024-02-28T10:23:07;100456.84;;;21.71;40.88
73952;BME280;62304;47.662;18.324;2024-02-28T10:26:12;100451.78;;;21.15;41.33
73952;BME280;62304;47.662;18.324;2024-02-28T10:29:15;100470.59;;;21.37;41.37
73952;BME280;62304;47.662;18.324;2024-02-28T10:32:18;100464.69;;;21.48;41.10
73952;BME280;62304;47.662;18.324;2024-02-28T10:35:22;100469.22;;;21.10;41.85
73952;BME280;62304;47.662;18.324;2024-02-28T10:38:28;100468.88;;;21.08;42.53
73952;BME280;62304;47.662;18.324;2024-02-28T10:41:34;100470.56;;;21.21;42.01
73952;BME280;62304;47.662;18.324;2024-02-28T10:44:37;100468.38;;;21.29;41.53
73952;BME280;62304;47.662;18.324;2024-02-28T10:47:41;100473.50;;;21.50;40.84
73952;BME280;62304;47.662;18.324;2024-02-28T10:50:46;100482.31;;;21.36;41.05
73952;BME280;62304;47.662;18.324;2024-02-28T10:57:07;100476.66;;;20.65;43.46
73952;BME280;62304;47.662;18.324;2024-02-28T11:00:13;100479.72;;;21.09;42.49
73952;BME280;62304;47.662;18.324;2024-02-28T11:03:20;100480.41;;;21.81;41.47
73952;BME280;62304;47.662;18.324;2024-02-28T11:06:26;100483.50;;;22.15;40.34
73952;BME280;62304;47.662;18.324;2024-02-28T11:09:30;100481.09;;;21.53;40.73
73952;BME280;62304;47.662;18.324;2024-02-28T11:12:34;100477.59;;;20.78;42.63
73952;BME280;62304;47.662;18.324;2024-02-28T11:15:40;100474.13;;;21.73;42.50
73952;BME280;62304;47.662;18.324;2024-02-28T11:18:50;100465.94;;;22.52;39.98
73952;BME280;62304;47.662;18.324;2024-02-28T11:21:54;100470.66;;;22.96;39.62
73952;BME280;62304;47.662;18.324;2024-02-28T11:25:00;100470.44;;;23.03;39.91
73952;BME280;62304;47.662;18.324;2024-02-28T11:28:04;100463.31;;;23.36;38.31
73952;BME280;62304;47.662;18.324;2024-02-28T11:31:07;100459.97;;;23.75;37.86
73952;BME280;62304;47.662;18.324;2024-02-28T11:34:11;100453.63;;;23.24;38.61
73952;BME280;62304;47.662;18.324;2024-02-28T11:37:14;100452.72;;;24.20;37.47
73952;BME280;62304;47.662;18.324;2024-02-28T11:40:17;100452.19;;;24.13;36.69
73952;BME280;62304;47.662;18.324;2024-02-28T11:43:21;100445.91;;;23.37;37.27
73952;BME280;62304;47.662;18.324;2024-02-28T11:46:25;100434.44;;;23.41;38.01
73952;BME280;62304;47.662;18.324;2024-02-28T11:49:28;100451.59;;;23.96;37.24
73952;BME280;62304;47.662;18.324;2024-02-28T11:52:31;100452.97;;;22.67;38.33
73952;BME280;62304;47.662;18.324;2024-02-28T11:55:35;100444.50;;;23.54;38.08
73952;BME280;62304;47.662;18.324;2024-02-28T11:58:49;100449.34;;;24.13;36.21
73952;BME280;62304;47.662;18.324;2024-02-28T12:01:53;100437.16;;;23.57;37.54
73952;BME280;62304;47.662;18.324;2024-02-28T12:05:02;100440.06;;;24.12;37.62
73952;BME280;62304;47.662;18.324;2024-02-28T12:08:07;100437.50;;;24.05;38.49
73952;BME280;62304;47.662;18.324;2024-02-28T12:11:13;100437.31;;;24.95;36.35
73952;BME280;62304;47.662;18.324;2024-02-28T12:14:16;100435.00;;;24.72;36.10
73952;BME280;62304;47.662;18.324;2024-02-28T12:17:20;100433.59;;;23.90;36.86
73952;BME280;62304;47.662;18.324;2024-02-28T12:20:22;100433.47;;;23.94;37.95
73952;BME280;62304;47.662;18.324;2024-02-28T12:23:26;100433.16;;;24.78;35.64
73952;BME280;62304;47.662;18.324;2024-02-28T12:26:29;100427.97;;;23.53;37.12
73952;BME280;62304;47.662;18.324;2024-02-28T12:29:32;100419.41;;;23.78;37.20
73952;BME280;62304;47.662;18.324;2024-02-28T12:32:35;100424.06;;;23.84;39.34
73952;BME280;62304;47.662;18.324;2024-02-28T12:35:39;100426.22;;;23.93;36.95
73952;BME280;62304;47.662;18.324;2024-02-28T12:38:45;100416.81;;;23.83;37.78
73952;BME280;62304;47.662;18.324;2024-02-28T12:41:48;100417.44;;;22.78;39.00
73952;BME280;62304;47.662;18.324;2024-02-28T12:44:51;100425.06;;;23.19;39.75
73952;BME280;62304;47.662;18.324;2024-02-28T12:47:55;100417.59;;;23.12;39.68
73952;BME280;62304;47.662;18.324;2024-02-28T12:51:00;100423.50;;;23.30;39.32
73952;BME280;62304;47.662;18.324;2024-02-28T12:54:03;100430.53;;;23.26;39.12
73952;BME280;62304;47.662;18.324;2024-02-28T12:57:06;100422.16;;;22.56;38.97
73952;BME280;62304;47.662;18.324;2024-02-28T13:00:14;100422.63;;;21.98;40.37
73952;BME280;62304;47.662;18.324;2024-02-28T13:03:17;100420.84;;;22.61;39.45
73952;BME280;62304;47.662;18.324;2024-02-28T13:06:22;100423.75;;;22.45;40.90
73952;BME280;62304;47.662;18.324;2024-02-28T13:09:25;100418.69;;;22.24;41.57
73952;BME280;62304;47.662;18.324;2024-02-28T13:12:31;100419.97;;;22.35;41.12
73952;BME280;62304;47.662;18.324;2024-02-28T13:15:35;100421.06;;;21.97;42.14
73952;BME280;62304;47.662;18.324;2024-02-28T13:18:38;100418.09;;;21.88;42.44
73952;BME280;62304;47.662;18.324;2024-02-28T13:21:42;100428.41;;;21.78;42.92
73952;BME280;62304;47.662;18.324;2024-02-28T13:24:45;100415.97;;;21.60;43.11
73952;BME280;62304;47.662;18.324;2024-02-28T13:27:48;100415.09;;;21.79;43.09
73952;BME280;62304;47.662;18.324;2024-02-28T13:30:52;100408.75;;;21.43;43.82
73952;BME280;62304;47.662;18.324;2024-02-28T13:33:55;100409.38;;;21.18;44.45
73952;BME280;62304;47.662;18.324;2024-02-28T13:36:58;100412.97;;;20.67;44.62
73952;BME280;62304;47.662;18.324;2024-02-28T13:40:02;100407.53;;;20.96;44.49
73952;BME280;62304;47.662;18.324;2024-02-28T13:43:31;100394.84;;;20.68;44.66
73952;BME280;62304;47.662;18.324;2024-02-28T13:46:35;100406.25;;;20.26;45.83
73952;BME280;62304;47.662;18.324;2024-02-28T13:49:39;100409.38;;;20.12;46.17
73952;BME280;62304;47.662;18.324;2024-02-28T13:52:43;100410.34;;;20.02;46.67
73952;BME280;62304;47.662;18.324;2024-02-28T13:55:47;100407.69;;;19.72;47.18
73952;BME280;62304;47.662;18.324;2024-02-28T13:58:50;100402.69;;;19.60;47.52
73952;BME280;62304;47.662;18.324;2024-02-28T14:01:56;100397.41;;;19.16;48.90
73952;BME280;62304;47.662;18.324;2024-02-28T14:05:00;100401.72;;;19.24;48.77
73952;BME280;62304;47.662;18.324;2024-02-28T14:08:03;100403.81;;;19.43;48.78
73952;BME280;62304;47.662;18.324;2024-02-28T14:11:07;100410.78;;;19.58;47.98
73952;BME280;62304;47.662;18.324;2024-02-28T14:14:11;100408.53;;;19.50;48.20
73952;BME280;62304;47.662;18.324;2024-02-28T14:17:14;100403.13;;;19.36;48.44
73952;BME280;62304;47.662;18.324;2024-02-28T14:20:18;100398.47;;;18.99;49.40
73952;BME280;62304;47.662;18.324;2024-02-28T14:23:22;100406.41;;;18.51;51.06
73952;BME280;62304;47.662;18.324;2024-02-28T14:26:24;100409.19;;;18.21;51.92
73952;BME280;62304;47.662;18.324;2024-02-28T14:29:28;100409.87;;;18.32;51.60
73952;BME280;62304;47.662;18.324;2024-02-28T14:32:32;100412.38;;;18.23;52.07
73952;BME280;62304;47.662;18.324;2024-02-28T14:35:36;100417.31;;;18.12;52.65
73952;BME280;62304;47.662;18.324;2024-02-28T14:38:41;100409.03;;;18.02;52.91
73952;BME280;62304;47.662;18.324;2024-02-28T14:41:46;100411.44;;;18.03;52.79
73952;BME280;62304;47.662;18.324;2024-02-28T14:44:49;100418.81;;;17.87;54.04
73952;BME280;62304;47.662;18.324;2024-02-28T14:47:54;100425.69;;;17.82;54.51
73952;BME280;62304;47.662;18.324;2024-02-28T14:50:57;100411.94;;;17.91;54.63
73952;BME280;62304;47.662;18.324;2024-02-28T14:54:00;100418.78;;;17.90;54.90
73952;BME280;62304;47.662;18.324;2024-02-28T14:57:04;100420.03;;;17.86;55.06
73952;BME280;62304;47.662;18.324;2024-02-28T15:00:08;100422.88;;;17.82;55.58
73952;BME280;62304;47.662;18.324;2024-02-28T15:03:17;100422.06;;;17.82;55.28
73952;BME280;62304;47.662;18.324;2024-02-28T15:06:20;100419.75;;;17.73;55.81
73952;BME280;62304;47.662;18.324;2024-02-28T15:09:23;100414.66;;;17.65;55.62
73952;BME280;62304;47.662;18.324;2024-02-28T15:12:27;100418.00;;;17.49;56.37
73952;BME280;62304;47.662;18.324;2024-02-28T15:15:30;100425.66;;;17.45;56.35
73952;BME280;62304;47.662;18.324;2024-02-28T15:18:33;100438.13;;;17.41;56.47
73952;BME280;62304;47.662;18.324;2024-02-28T15:21:36;100430.66;;;17.17;57.54
73952;BME280;62304;47.662;18.324;2024-02-28T15:24:39;100438.38;;;17.02;58.23
73952;BME280;62304;47.662;18.324;2024-02-28T15:27:42;100425.69;;;16.84;58.50
73952;BME280;62304;47.662;18.324;2024-02-28T15:30:46;100440.94;;;16.79;59.14
73952;BME280;62304;47.662;18.324;2024-02-28T15:33:51;100443.38;;;16.74;59.34
73952;BME280;62304;47.662;18.324;2024-02-28T15:36:54;100448.59;;;16.68;59.64
73952;BME280;62304;47.662;18.324;2024-02-28T15:40:03;100439.47;;;16.57;60.16
73952;BME280;62304;47.662;18.324;2024-02-28T15:43:09;100443.91;;;16.51;60.77
73952;BME280;62304;47.662;18.324;2024-02-28T15:46:14;100446.72;;;16.37;60.78
73952;BME280;62304;47.662;18.324;2024-02-28T15:49:17;100451.59;;;16.23;61.71
73952;BME280;62304;47.662;18.324;2024-02-28T15:52:34;100466.41;;;16.13;62.86